Prestonsburg, Kentucky
Current Conditions -  °F | °C
As of 8:55 AM on Monday 24 Nov 2014 (Local Time) from KSJS Reporting Station
Clear Clear  
Wind Chill: 65°   Ceiling: Unl
Heat Index: 65°   Visibility: 10mi
Dew Point: 47°   Wind: 21mph
Humidity: 53%   Direction: 200°SSW
Pressure: 29.53"   Gusts: 30mph
Location:  37.67°N, 82.77°W
Report Text: KSJS 241355Z AUTO 20018G26KT 10SM CLR 18/09 A2953 RMK AO2 T01830085
Loading
Personal Weather Stations






























Interactive Weather Map New forecast layout! Learn more

10-Day Weather Forecast

Advertisements
Track Severe Weather on mobile